Time;durP1;ratioP1;P1;durP2;ratioP2;P2;SDS_P1;SDS_P2;PMS_P1;PMS_P2;Temp;Humidity;BMP_temperature;BMP_pressure;BME280_temperature;BME280_humidity;BME280_pressure;Samples;Min_cycle;Max_cycle;Signal;HPM_P1;HPM_P2
2021/12/19 00:02:45;;;;;;;0.32;0.10;;;1.30;99.90;;;;;;20633431;28;20046;-51
2021/12/19 00:12:48;;;;;;;0.30;0.20;;;1.30;99.90;;;;;;20632635;28;20046;-49
2021/12/19 00:22:51;;;;;;;0.10;0.05;;;1.50;99.90;;;;;;20631680;28;20042;-49
2021/12/19 00:32:53;;;;;;;0.10;0.00;;;1.80;99.90;;;;;;20725836;28;20045;-50
2021/12/19 00:43:09;;;;;;;0.55;0.10;;;1.80;99.90;;;;;;20819718;28;20083;-50
2021/12/19 00:53:12;;;;;;;0.13;0.00;;;1.90;99.90;;;;;;20801211;28;20079;-51
2021/12/19 01:03:14;;;;;;;0.20;0.10;;;2.10;99.90;;;;;;20784544;28;20038;-49
2021/12/19 01:13:18;;;;;;;0.40;0.03;;;2.20;99.90;;;;;;20801004;28;20095;-50
2021/12/19 01:23:22;;;;;;;0.25;0.10;;;2.50;99.90;;;;;;20799786;28;20037;-49
2021/12/19 01:33:24;;;;;;;0.25;0.10;;;2.90;99.50;;;;;;20789669;28;20107;-53
2021/12/19 01:43:27;;;;;;;0.05;0.00;;;3.60;98.10;;;;;;20815517;28;20076;-50
2021/12/19 01:53:30;;;;;;;0.00;0.00;;;3.10;98.90;;;;;;20814600;28;20037;-50
2021/12/19 02:03:35;;;;;;;0.40;0.10;;;2.70;99.70;;;;;;20781474;28;20112;-50
2021/12/19 02:13:38;;;;;;;0.00;0.00;;;2.50;99.90;;;;;;20731887;28;20042;-50
2021/12/19 02:23:41;;;;;;;0.00;0.00;;;2.50;99.10;;;;;;20731854;28;20034;-49
2021/12/19 02:33:57;;;;;;;0.00;0.00;;;2.70;98.90;;;;;;20733043;28;20041;-50
2021/12/19 02:54:23;;;;;;;0.10;0.00;;;2.60;99.30;;;;;;20810876;28;20083;-50
2021/12/19 03:04:29;;;;;;;0.43;0.00;;;2.50;99.80;;;;;;20810302;28;20065;-50
2021/12/19 03:24:53;;;;;;;0.00;0.00;;;2.30;99.70;;;;;;20809143;28;20041;-51
2021/12/19 03:34:56;;;;;;;0.28;0.00;;;2.30;99.00;;;;;;20807019;28;20557;-53
2021/12/19 03:44:58;;;;;;;0.03;0.00;;;2.80;98.40;;;;;;20806035;28;20045;-50
2021/12/19 03:55:02;;;;;;;0.17;0.00;;;2.40;98.90;;;;;;20805709;28;20037;-51
2021/12/19 04:05:06;;;;;;;0.00;0.00;;;2.30;98.20;;;;;;20804922;28;20079;-51
2021/12/19 04:15:09;;;;;;;0.20;0.00;;;2.60;98.30;;;;;;20804381;28;20440;-50
2021/12/19 04:25:13;;;;;;;0.10;0.00;;;2.30;98.80;;;;;;20803328;28;20489;-51
2021/12/19 04:35:15;;;;;;;0.20;0.00;;;1.90;99.90;;;;;;20802026;28;20087;-51
2021/12/19 04:55:56;;;;;;;0.10;0.00;;;2.00;99.70;;;;;;20802417;28;20041;-49
2021/12/19 05:16:21;;;;;;;0.05;0.00;;;2.10;99.40;;;;;;20799940;28;20037;-50
2021/12/19 05:26:24;;;;;;;0.05;0.00;;;2.00;99.40;;;;;;20799660;28;20061;-52
2021/12/19 05:46:48;;;;;;;0.08;0.00;;;2.30;99.00;;;;;;20799808;28;20117;-50
2021/12/19 05:56:51;;;;;;;0.08;0.00;;;2.00;98.60;;;;;;20798137;28;20061;-50
2021/12/19 06:06:53;;;;;;;0.20;0.00;;;2.30;98.40;;;;;;20798922;28;20041;-50
2021/12/19 06:16:56;;;;;;;0.20;0.00;;;2.40;98.10;;;;;;20800429;28;20046;-50
2021/12/19 06:27:00;;;;;;;0.00;0.00;;;2.60;97.60;;;;;;20812326;28;20029;-52
2021/12/19 06:37:08;;;;;;;0.00;0.00;;;2.40;96.50;;;;;;20810866;28;20072;-51
2021/12/19 06:47:10;;;;;;;0.00;0.00;;;2.40;97.70;;;;;;20810935;28;20095;-50
2021/12/19 06:57:13;;;;;;;0.00;0.00;;;2.40;98.10;;;;;;20810134;28;20095;-49
2021/12/19 07:07:16;;;;;;;0.20;0.00;;;2.60;96.80;;;;;;20809509;28;20041;-54
2021/12/19 07:17:18;;;;;;;0.00;0.00;;;2.90;97.50;;;;;;20809625;28;20029;-49
2021/12/19 07:27:22;;;;;;;0.00;0.00;;;3.20;96.50;;;;;;20807217;28;20100;-50
2021/12/19 07:37:24;;;;;;;0.05;0.00;;;3.90;95.10;;;;;;20806051;28;20368;-49
2021/12/19 07:47:27;;;;;;;0.70;0.00;;;4.20;94.20;;;;;;20790330;28;20091;-50
2021/12/19 07:57:30;;;;;;;0.08;0.00;;;4.60;93.70;;;;;;20787749;28;20168;-48
2021/12/19 08:07:32;;;;;;;0.20;0.00;;;6.20;86.40;;;;;;20756737;28;20461;-50
2021/12/19 08:17:35;;;;;;;0.17;0.00;;;7.60;83.60;;;;;;20752554;28;20063;-49
2021/12/19 08:27:38;;;;;;;0.00;0.00;;;7.70;84.70;;;;;;20803472;28;20037;-50
2021/12/19 08:37:41;;;;;;;0.08;0.00;;;7.60;86.80;;;;;;20802428;28;20069;-49
2021/12/19 08:47:43;;;;;;;0.30;0.00;;;8.60;78.00;;;;;;20801932;28;20071;-51
2021/12/19 08:57:45;;;;;;;0.00;0.00;;;9.30;70.10;;;;;;20741572;28;20526;-51
2021/12/19 09:07:50;;;;;;;0.20;0.10;;;10.10;68.50;;;;;;20719981;28;20034;-50
2021/12/19 09:17:53;;;;;;;0.10;0.00;;;10.40;65.10;;;;;;20718616;28;20096;-51
2021/12/19 09:27:56;;;;;;;0.00;0.00;;;10.60;62.50;;;;;;20718045;28;20037;-54
2021/12/19 09:37:59;;;;;;;0.75;0.10;;;10.90;62.90;;;;;;20740780;28;20041;-52
2021/12/19 09:48:02;;;;;;;0.57;0.20;;;11.50;59.50;;;;;;20798304;28;20481;-50
2021/12/19 09:58:04;;;;;;;0.22;0.10;;;11.60;58.40;;;;;;20810777;28;20030;-51
2021/12/19 10:08:07;;;;;;;0.20;0.10;;;11.20;56.80;;;;;;20813737;28;20087;-52
2021/12/19 10:18:12;;;;;;;0.00;0.00;;;11.20;58.20;;;;;;20829284;28;20095;-52
2021/12/19 10:28:17;;;;;;;0.63;0.20;;;11.40;57.60;;;;;;20811738;28;20033;-50
2021/12/19 10:38:23;;;;;;;0.90;0.30;;;11.90;56.40;;;;;;20810598;28;20049;-50
2021/12/19 10:48:26;;;;;;;0.30;0.08;;;12.00;56.80;;;;;;20812383;28;20079;-51
2021/12/19 10:58:45;;;;;;;0.20;0.10;;;11.70;54.60;;;;;;20811095;28;20087;-51
2021/12/19 11:08:50;;;;;;;0.15;0.00;;;11.80;53.50;;;;;;20841152;28;20049;-49
2021/12/19 11:18:53;;;;;;;0.93;0.17;;;11.90;52.30;;;;;;20808532;28;20033;-48
2021/12/19 11:28:57;;;;;;;0.28;0.10;;;11.80;53.20;;;;;;20807428;28;20041;-49
2021/12/19 11:39:03;;;;;;;0.10;0.00;;;11.90;53.40;;;;;;20806554;28;20046;-50
2021/12/19 11:49:22;;;;;;;0.20;0.10;;;12.00;54.20;;;;;;20806448;28;20511;-50
2021/12/19 11:59:24;;;;;;;0.30;0.10;;;12.00;53.30;;;;;;20766473;28;20091;-48
2021/12/19 12:09:39;;;;;;;0.20;0.10;;;12.10;50.40;;;;;;20805456;28;20033;-48
2021/12/19 12:19:48;;;;;;;1.30;0.10;;;12.00;50.20;;;;;;20783782;28;20096;-49
2021/12/19 12:29:51;;;;;;;0.20;0.05;;;12.00;51.30;;;;;;20721341;28;20391;-49
2021/12/19 12:40:32;;;;;;;0.20;0.10;;;12.10;49.80;;;;;;20759815;28;20131;-49
2021/12/19 12:50:36;;;;;;;0.38;0.20;;;12.00;50.60;;;;;;20597202;28;20562;-51
2021/12/19 13:00:38;;;;;;;0.63;0.10;;;11.90;52.70;;;;;;20645806;28;20042;-51
2021/12/19 13:10:42;;;;;;;0.30;0.05;;;12.00;47.30;;;;;;20629432;28;20046;-49
2021/12/19 13:20:46;;;;;;;0.05;0.03;;;11.80;48.90;;;;;;20702931;28;20061;-54
2021/12/19 13:30:54;;;;;;;0.17;0.10;;;11.50;50.20;;;;;;20833514;28;20041;-49
2021/12/19 13:41:06;;;;;;;0.73;0.10;;;11.10;51.00;;;;;;20840994;28;20049;-50
2021/12/19 13:51:22;;;;;;;0.10;0.00;;;10.50;51.80;;;;;;20827933;28;20361;-49
2021/12/19 14:01:43;;;;;;;0.00;0.00;;;10.60;50.20;;;;;;20810144;28;20037;-55
2021/12/19 14:11:55;;;;;;;0.00;0.00;;;10.70;51.30;;;;;;20827868;28;20038;-51
2021/12/19 14:22:06;;;;;;;0.10;0.03;;;10.70;51.00;;;;;;20809574;28;20087;-51
2021/12/19 14:32:27;;;;;;;0.10;0.00;;;10.50;51.10;;;;;;20825218;28;20033;-49
2021/12/19 14:42:34;;;;;;;0.20;0.10;;;10.30;52.60;;;;;;20817257;28;20104;-51
2021/12/19 14:52:38;;;;;;;0.20;0.00;;;10.00;52.30;;;;;;20793265;28;20450;-51
2021/12/19 15:02:40;;;;;;;0.10;0.03;;;9.80;52.30;;;;;;20728745;28;20034;-50
2021/12/19 15:12:44;;;;;;;0.10;0.00;;;9.50;52.90;;;;;;20727730;28;20034;-50
2021/12/19 15:22:46;;;;;;;0.30;0.10;;;8.70;57.30;;;;;;20727164;28;20041;-51
2021/12/19 15:32:51;;;;;;;0.40;0.10;;;8.10;58.50;;;;;;20726624;28;20556;-55
2021/12/19 15:42:54;;;;;;;0.00;0.00;;;8.00;59.50;;;;;;20753832;28;20127;-51
2021/12/19 15:52:58;;;;;;;0.10;0.00;;;8.50;55.20;;;;;;20805795;28;20556;-51
2021/12/19 16:03:01;;;;;;;0.10;0.00;;;8.70;57.00;;;;;;20823609;28;20029;-50
2021/12/19 16:13:03;;;;;;;0.20;0.00;;;8.00;59.00;;;;;;20788506;28;20033;-49
2021/12/19 16:23:06;;;;;;;0.22;0.10;;;8.00;56.50;;;;;;20804364;28;20083;-51
2021/12/19 16:33:13;;;;;;;0.00;0.00;;;8.10;58.70;;;;;;20787081;28;20029;-52
2021/12/19 16:43:29;;;;;;;0.10;0.03;;;8.20;53.50;;;;;;20802404;28;20527;-49
2021/12/19 16:53:36;;;;;;;0.30;0.00;;;8.90;52.90;;;;;;20794259;28;20556;-49
2021/12/19 17:03:38;;;;;;;0.00;0.00;;;9.30;52.20;;;;;;20719228;28;20131;-49
2021/12/19 17:13:54;;;;;;;0.00;0.00;;;9.00;52.30;;;;;;20719660;28;20096;-49
2021/12/19 17:23:57;;;;;;;0.00;0.00;;;9.00;51.50;;;;;;20703024;28;20064;-49
2021/12/19 17:34:00;;;;;;;0.35;0.00;;;9.30;51.40;;;;;;20718859;28;20389;-51
2021/12/19 17:44:04;;;;;;;0.03;0.00;;;9.50;49.40;;;;;;20788428;28;20457;-49
2021/12/19 17:54:08;;;;;;;0.20;0.00;;;9.30;50.40;;;;;;20799344;28;20038;-51
2021/12/19 18:04:17;;;;;;;0.15;0.00;;;9.20;52.50;;;;;;20800312;28;20363;-49
2021/12/19 18:14:21;;;;;;;0.00;0.00;;;9.10;51.80;;;;;;20802966;28;20497;-49
2021/12/19 18:24:26;;;;;;;0.00;0.00;;;8.90;52.70;;;;;;20781616;28;20072;-49
2021/12/19 18:34:35;;;;;;;0.00;0.00;;;8.30;56.40;;;;;;20812468;28;20486;-50
2021/12/19 18:44:52;;;;;;;0.00;0.00;;;7.00;60.30;;;;;;20812166;28;20041;-54
2021/12/19 18:55:24;;;;;;;0.20;0.00;;;6.00;65.80;;;;;;20810923;28;20099;-49
2021/12/19 19:05:20;;;;;;;0.08;0.00;;;5.30;69.40;;;;;;20826788;28;20033;-52
2021/12/19 19:15:23;;;;;;;0.20;0.00;;;4.90;71.70;;;;;;20809534;28;20038;-50
2021/12/19 19:25:28;;;;;;;0.05;0.00;;;4.60;71.70;;;;;;20808343;28;20033;-49
2021/12/19 19:35:32;;;;;;;0.00;0.00;;;4.60;72.10;;;;;;20807898;28;20037;-49
2021/12/19 19:55:57;;;;;;;0.00;0.00;;;4.80;67.50;;;;;;20761018;28;20046;-51
2021/12/19 20:06:06;;;;;;;0.10;0.00;;;5.10;66.00;;;;;;20776133;28;20536;-50
2021/12/19 20:16:08;;;;;;;0.00;0.00;;;5.40;67.80;;;;;;20804322;28;20037;-49
2021/12/19 20:26:11;;;;;;;0.00;0.00;;;5.20;67.20;;;;;;20803573;28;20096;-50
2021/12/19 20:36:14;;;;;;;0.00;0.00;;;5.70;60.80;;;;;;20802989;28;20050;-54
2021/12/19 20:46:17;;;;;;;0.00;0.00;;;5.60;62.50;;;;;;20802011;28;20060;-50
2021/12/19 20:56:20;;;;;;;0.00;0.00;;;5.90;62.10;;;;;;20753423;28;20474;-52
2021/12/19 21:06:24;;;;;;;0.00;0.00;;;6.10;59.40;;;;;;20720039;28;20103;-53
2021/12/19 21:26:50;;;;;;;0.00;0.00;;;6.20;57.50;;;;;;20718386;28;20030;-49
2021/12/19 21:47:13;;;;;;;0.00;0.00;;;4.80;68.00;;;;;;20800294;28;20095;-50
2021/12/19 21:57:16;;;;;;;0.00;0.00;;;4.60;64.10;;;;;;20815217;28;20111;-51
2021/12/19 22:07:18;;;;;;;0.00;0.00;;;4.90;63.20;;;;;;20814646;28;20525;-49
2021/12/19 22:17:23;;;;;;;0.88;0.00;;;4.90;66.10;;;;;;20813820;28;20033;-51
2021/12/19 22:27:25;;;;;;;0.10;0.00;;;4.50;68.00;;;;;;20812843;28;20115;-49
2021/12/19 22:37:28;;;;;;;0.13;0.00;;;4.10;68.10;;;;;;20812118;28;20498;-54
2021/12/19 22:47:30;;;;;;;0.00;0.00;;;3.90;67.30;;;;;;20811458;28;20095;-51
2021/12/19 22:57:33;;;;;;;0.00;0.00;;;3.60;70.00;;;;;;20752605;28;20372;-51
2021/12/19 23:07:36;;;;;;;0.00;0.00;;;3.80;67.40;;;;;;20726845;28;20084;-50
2021/12/19 23:17:53;;;;;;;0.00;0.00;;;4.40;67.20;;;;;;20745595;28;20088;-50
2021/12/19 23:27:56;;;;;;;0.10;0.00;;;4.70;64.30;;;;;;20726927;28;20042;-50
2021/12/19 23:38:09;;;;;;;0.00;0.00;;;4.50;67.70;;;;;;20747110;28;20103;-51
2021/12/19 23:48:11;;;;;;;0.08;0.00;;;4.30;68.30;;;;;;20806652;28;20037;-50
2021/12/19 23:58:14;;;;;;;0.00;0.00;;;4.70;65.70;;;;;;20805600;28;20037;-50
